• Join FlightAware (Why Join?)
  • Login
  • US Flag 
05:13AM EST


 

Airport Tracker/Info


-or-


 

Live Flight TrackerFlight Track Log ✈ N960DL ✈ 10-Jun-2013 ✈ KATL - KDAB

Flight Track Log - Related Links

Times and Time Zones

All times are in EDT time to prevent confusion due to time zone crossing. See the N960DL flight status page for this flight to view local times or setup timezone preferences in your user account.

Time Position Orientation Groundspeed Altitude Reporting Facility
EDT Latitude Longitude Course Direction KTS MPH feet Rate Location/Type
12:11PM 33.6333 -84.4833 145° Southeast 179 206 2,800  Level Atlanta TRACON
12:12PM 33.6167 -84.5333 248° West 236 272 4,600 2,220 Climbing Atlanta TRACON
12:13PM 33.3798 -84.2631 140° Southeast  Level FlightAware Approximate
12:14PM 33.2889 -84.1720 140° Southeast  Level FlightAware Approximate
12:14PM 33.4861 -84.5794 196° South 259 298 10,000  Level Atlanta Center
12:15PM 33.1980 -84.0811 140° Southeast  Level FlightAware Approximate
12:15PM 33.4156 -84.5317 151° Southeast 274 315 11,600  Level Atlanta Center
12:16PM 33.1042 -84.0000 180° South  Level FlightAware Approximate
12:16PM 33.3364 -84.4814 152° Southeast 298 343 13,600  Level Atlanta Center
12:17PM 33.0164 -83.9106 145° Southeast  Level FlightAware Approximate
12:17PM 33.2867 -84.3744 119° Southeast 336 387 14,800  Level Atlanta Center
12:18PM 33.2264 -84.2500 120° Southeast 417 480 16,500 1,740 Climbing Atlanta Center
12:19PM 33.1597 -84.1256 123° Southeast 440 506 18,300 1,860 Climbing Atlanta Center
12:20PM 33.0908 -83.9967 123° Southeast 455 524 20,300 1,800 Climbing Atlanta Center
12:21PM 32.9947 -83.9000 140° Southeast 446 513 22,000 1,680 Climbing Atlanta Center
12:22PM 32.8861 -83.8089 145° Southeast 461 531 23,700 1,920 Climbing Atlanta Center
12:23PM 32.7814 -83.7225 145° Southeast 466 536 25,900 1,860 Climbing Atlanta Center
12:24PM 32.6769 -83.6342 145° Southeast 466 536 27,500 600 Climbing Atlanta Center
12:27PM 32.4369 -83.3922 140° Southeast 470 541 28,000 120 Climbing Jacksonville Center
12:28PM 32.3392 -83.2933 139° Southeast 470 541 28,000  Level Jacksonville Center
12:29PM 32.2392 -83.1947 140° Southeast 470 541 28,000  Level Jacksonville Center
12:30PM 32.1414 -83.0986 140° Southeast 465 535 28,000  Level Jacksonville Center
12:31PM 32.0433 -83.0028 140° Southeast 465 535 28,000  Level Jacksonville Center
12:32PM 31.9453 -82.9072 140° Southeast 465 535 28,000  Level Jacksonville Center
12:33PM 31.8469 -82.8094 140° Southeast 465 535 28,000  Level Jacksonville Center
12:34PM 31.7489 -82.7117 140° Southeast 465 535 28,000  Level Jacksonville Center
12:35PM 31.6483 -82.6192 142° Southeast 465 535 28,000  Level Jacksonville Center
12:36PM 31.5500 -82.5244 141° Southeast 465 535 28,000  Level Jacksonville Center
12:37PM 31.4475 -82.4347 143° Southeast 465 535 28,000  Level Jacksonville Center
12:38PM 31.3303 -82.3406 146° Southeast 465 535 28,000  Level Jacksonville Center
12:39PM 31.2294 -82.2511 143° Southeast 460 529 28,000  Level Jacksonville Center
12:40PM 31.1247 -82.1622 144° Southeast 460 529 28,000  Level Jacksonville Center
12:41PM 31.0239 -82.0781 144° Southeast 460 529 28,000 -300 Level Jacksonville Center
12:42PM 30.9189 -81.9917 145° Southeast 460 529 27,500 -1,500 Descending Jacksonville Center
12:43PM 30.8181 -81.9106 145° Southeast 455 524 25,000 -1,800 Descending Jacksonville Center
12:44PM 30.7194 -81.8269 144° Southeast 455 524 24,000 -600 Descending Jacksonville Center
12:45PM 30.6183 -81.7436 145° Southeast 450 518 23,900 -1,200 Descending Jacksonville Center
12:46PM 30.5236 -81.6628 144° Southeast 445 512 21,700 -2,040 Descending Jacksonville Center
12:47PM 30.4269 -81.5819 144° Southeast 434 499 19,900 -900 Descending Jacksonville Center
12:48PM 30.3322 -81.5111 147° Southeast 422 486 20,000  Climbing Jacksonville Center
12:49PM 30.2397 -81.4667 157° South 411 473 20,000 -780 Level Jacksonville Center
12:50PM 30.1350 -81.4275 162° South 401 461 18,500 -1,620 Descending Jacksonville Center
12:51PM 30.0322 -81.3906 163° South 396 456 16,800 -1,260 Descending Jacksonville Center
12:52PM 29.9294 -81.3539 163° South 390 449 16,000 -600 Descending Jacksonville Center
12:53PM 29.8078 -81.3056 161° South 383 441 15,600 -1,020 Descending Jacksonville Center
12:54PM 29.7092 -81.2689 162° South 371 427 13,900 -2,040 Descending Jacksonville Center
12:55PM 29.6064 -81.2325 163° South 362 417 11,500 -2,040 Descending Jacksonville Center
12:56PM 29.5414 -81.2072 161° South 369 425 10,200 -1,380 Descending Jacksonville Center
12:56PM 29.5119 -81.1958 161° South 336 387 10,000 -600 Descending Jacksonville Center
12:57PM 29.4614 -81.1658 153° Southeast 340 391 9,600 -900 Descending Jacksonville Center
12:57PM 29.4344 -81.1661 181° South 277 319 9,100 -1,440 Descending Jacksonville Center
12:58PM 29.3861 -81.1433 158° South 308 354 8,200 -1,440 Descending Jacksonville Center
12:59PM 29.3147 -81.1206 164° South 287 330 6,700 -1,560 Descending Jacksonville Center
01:00PM 29.2458 -81.1100 172° South 264 304 5,100 -1,680 Descending Jacksonville Center
01:01PM 29.2133 -81.1867 244° Southwest 214 246 3,400 -1,140 Descending Jacksonville Center
01:02PM 29.1914 -81.2608 251° West 222 255 2,900 -840 Descending Jacksonville Center
01:03PM 29.1411 -81.2544 174° South 204 235 1,600 -1,140 Descending Jacksonville Center